Time;durP1;ratioP1;P1;durP2;ratioP2;P2;SDS_P1;SDS_P2;PMS_P1;PMS_P2;Temp;Humidity;BMP_temperature;BMP_pressure;BME280_temperature;BME280_humidity;BME280_pressure;Samples;Min_cycle;Max_cycle;Signal;HPM_P1;HPM_P2
2024/02/17 00:01:11;;;;;;;36.92;23.25;;;;;;;3.96;100.00;106550.91;5057535;28;20406;-68
2024/02/17 00:03:36;;;;;;;32.10;21.15;;;;;;;4.60;100.00;106658.47;5054571;28;20407;-69
2024/02/17 00:06:02;;;;;;;29.98;20.98;;;;;;;4.03;100.00;106628.94;5055343;28;20029;-68
2024/02/17 00:08:27;;;;;;;31.13;20.60;;;;;;;3.99;100.00;106683.88;5058933;28;20036;-69
2024/02/17 00:10:52;;;;;;;32.33;20.45;;;;;;;3.24;100.00;106631.16;5055733;28;20646;-69
2024/02/17 00:13:18;;;;;;;32.75;21.10;;;;;;;3.53;100.00;106751.94;5052347;28;20039;-69
2024/02/17 00:15:44;;;;;;;32.90;20.20;;;;;;;4.46;100.00;106931.88;5054799;28;20041;-69
2024/02/17 00:18:10;;;;;;;30.42;21.75;;;;;;;4.03;100.00;106874.97;5057593;28;20024;-69
2024/02/17 00:20:36;;;;;;;31.20;21.83;;;;;;;4.22;100.00;106985.53;5059991;28;20041;-68
2024/02/17 00:23:01;;;;;;;30.30;20.40;;;;;;;4.11;100.00;107046.47;5057070;28;20025;-70
2024/02/17 00:25:27;;;;;;;31.65;21.00;;;;;;;4.12;100.00;107019.66;5057307;28;20567;-72
2024/02/17 00:27:52;;;;;;;37.30;27.52;;;;;;;4.47;100.00;107099.22;5054229;28;20040;-68
2024/02/17 00:30:20;;;;;;;37.80;26.20;;;;;;;3.33;100.00;106921.56;5055510;28;20037;-68
2024/02/17 00:32:46;;;;;;;31.75;21.58;;;;;;;3.75;100.00;106993.53;5054895;28;20028;-72
2024/02/17 00:35:11;;;;;;;33.63;22.00;;;;;;;4.06;100.00;107110.56;5056621;28;20082;-70
2024/02/17 00:37:37;;;;;;;35.70;23.45;;;;;;;4.17;100.00;107137.91;5055807;28;20033;-70
2024/02/17 00:40:05;;;;;;;34.13;24.80;;;;;;;4.27;100.00;107139.84;5056513;28;20033;-67
2024/02/17 00:42:31;;;;;;;34.00;24.42;;;;;;;4.45;100.00;107191.44;5056439;28;20403;-68
2024/02/17 00:44:56;;;;;;;35.53;24.88;;;;;;;3.62;100.00;107083.53;5059075;28;20020;-68
2024/02/17 00:47:21;;;;;;;38.90;26.50;;;;;;;2.71;100.00;106996.44;5056041;28;20032;-68
2024/02/17 00:49:47;;;;;;;39.42;27.85;;;;;;;3.47;100.00;107156.56;5058084;28;20399;-68
2024/02/17 00:52:12;;;;;;;37.70;26.25;;;;;;;4.21;100.00;107321.53;5060507;28;20040;-68
2024/02/17 00:54:38;;;;;;;37.35;25.15;;;;;;;4.30;100.00;107430.09;5062963;28;20025;-72
2024/02/17 00:57:03;;;;;;;39.08;26.20;;;;;;;3.82;100.00;107371.38;5060263;28;20392;-68
2024/02/17 00:59:29;;;;;;;37.20;25.75;;;;;;;3.64;100.00;107392.75;5064698;28;20082;-69
2024/02/17 01:01:56;;;;;;;37.35;25.73;;;;;;;4.09;100.00;107463.75;5057534;28;20032;-68
2024/02/17 01:04:22;;;;;;;36.42;24.30;;;;;;;3.75;100.00;107404.09;5061632;28;20039;-68
2024/02/17 01:06:47;;;;;;;32.22;23.52;;;;;;;4.35;100.00;107567.72;5062921;28;20025;-69
2024/02/17 01:09:15;;;;;;;36.22;24.60;;;;;;;3.75;100.00;107515.84;5058014;28;20396;-68
2024/02/17 01:11:40;;;;;;;39.70;25.23;;;;;;;3.53;100.00;107525.63;5061945;28;20116;-70
2024/02/17 01:14:06;;;;;;;34.65;23.80;;;;;;;4.45;100.00;107670.59;5064723;28;20120;-70
2024/02/17 01:16:31;;;;;;;35.83;24.30;;;;;;;4.27;100.00;107644.03;5063459;28;20494;-68
2024/02/17 01:18:57;;;;;;;36.30;25.00;;;;;;;3.96;100.00;107625.91;5061837;28;20044;-69
2024/02/17 01:21:22;;;;;;;45.20;30.02;;;;;;;3.95;100.00;107704.72;5061396;28;20041;-69
2024/02/17 01:23:48;;;;;;;45.97;31.40;;;;;;;4.37;100.00;107779.00;5055563;28;20037;-69
2024/02/17 01:26:14;;;;;;;63.47;40.42;;;;;;;3.95;100.00;107720.75;5062829;28;20077;-69
2024/02/17 01:28:40;;;;;;;48.40;32.13;;;;;;;3.96;100.00;107765.38;5056195;28;20040;-68
2024/02/17 01:31:05;;;;;;;52.97;33.97;;;;;;;4.04;100.00;107797.50;5061002;28;20102;-68
2024/02/17 01:33:30;;;;;;;57.35;36.35;;;;;;;4.22;100.00;107854.34;5056517;28;20029;-72
2024/02/17 01:35:56;;;;;;;56.92;34.42;;;;;;;4.11;100.00;107840.41;5057489;28;20020;-68
2024/02/17 01:38:22;;;;;;;56.78;33.58;;;;;;;3.86;100.00;107822.00;5060526;28;20105;-69
2024/02/17 01:40:47;;;;;;;45.50;30.73;;;;;;;3.91;100.00;107853.72;5058152;28;20041;-70
2024/02/17 01:43:13;;;;;;;43.22;29.55;;;;;;;3.13;100.00;107764.78;5056075;28;20029;-70
2024/02/17 01:45:39;;;;;;;44.65;27.70;;;;;;;3.82;100.00;107901.34;5060945;28;20032;-69
2024/02/17 01:48:05;;;;;;;54.75;34.15;;;;;;;3.70;100.00;107951.78;5060782;28;20418;-69
2024/02/17 01:50:31;;;;;;;49.03;30.50;;;;;;;3.76;100.00;108013.94;5057533;28;20025;-69
2024/02/17 01:52:58;;;;;;;49.83;30.23;;;;;;;3.48;100.00;107960.69;5054314;28;20040;-69
2024/02/17 01:55:25;;;;;;;51.13;31.15;;;;;;;3.97;100.00;108084.75;5060253;28;20040;-69
2024/02/17 01:57:51;;;;;;;42.50;27.10;;;;;;;4.04;100.00;108087.34;5053107;28;20457;-69
2024/02/17 02:00:18;;;;;;;36.05;24.48;;;;;;;3.30;100.00;107981.84;5063103;28;20107;-69
2024/02/17 02:02:47;;;;;;;32.60;22.45;;;;;;;3.34;100.00;107993.22;5060219;28;20061;-73
2024/02/17 02:05:13;;;;;;;35.22;21.65;;;;;;;4.16;100.00;108126.75;5059083;28;20059;-70
2024/02/17 02:07:39;;;;;;;31.20;20.98;;;;;;;4.20;100.00;108134.00;5059557;28;20166;-68
2024/02/17 02:10:05;;;;;;;34.25;22.63;;;;;;;3.78;100.00;108074.59;5061977;28;20107;-68
2024/02/17 02:12:31;;;;;;;33.97;22.35;;;;;;;3.24;100.00;107949.94;5059540;28;20033;-69
2024/02/17 02:15:02;;;;;;;35.42;22.60;;;;;;;4.08;100.00;108123.97;5061141;28;20082;-69
2024/02/17 02:17:28;;;;;;;37.30;23.13;;;;;;;3.46;100.00;108081.38;5056999;28;20105;-69
2024/02/17 02:19:54;;;;;;;33.60;22.40;;;;;;;3.97;100.00;108180.53;5062627;28;20439;-68
2024/02/17 02:22:19;;;;;;;39.15;24.33;;;;;;;2.87;100.00;108075.00;5056835;28;20029;-69
2024/02/17 02:24:48;;;;;;;32.53;21.98;;;;;;;3.37;100.00;108228.69;5059047;28;20442;-73
2024/02/17 02:27:13;;;;;;;30.40;20.60;;;;;;;3.53;100.00;108297.13;5062895;28;20460;-69
2024/02/17 02:29:45;;;;;;;30.50;21.17;;;;;;;3.17;100.00;108289.63;5055399;28;20123;-69
2024/02/17 02:32:10;;;;;;;33.75;21.70;;;;;;;3.50;100.00;108408.47;5056111;28;20036;-69
2024/02/17 02:34:36;;;;;;;32.38;21.40;;;;;;;3.40;100.00;108473.38;5063372;28;20041;-68
2024/02/17 02:37:02;;;;;;;33.88;20.38;;;;;;;3.22;100.00;108448.16;5065708;28;20281;-69
2024/02/17 02:39:28;;;;;;;31.45;21.40;;;;;;;2.85;100.00;108431.16;5056932;28;20484;-68
2024/02/17 02:41:53;;;;;;;31.50;19.92;;;;;;;3.54;100.00;108571.00;5065464;28;20032;-69
2024/02/17 02:44:18;;;;;;;32.47;21.13;;;;;;;2.53;100.00;108449.25;5059967;28;20416;-70
2024/02/17 02:46:44;;;;;;;33.05;22.08;;;;;;;2.86;100.00;108518.50;5059221;28;20028;-69
2024/02/17 02:49:09;;;;;;;31.33;20.88;;;;;;;3.61;100.00;108724.81;5057471;28;20035;-73
2024/02/17 02:51:35;;;;;;;33.25;21.02;;;;;;;3.50;100.00;108755.13;5061504;28;20028;-69
2024/02/17 02:54:00;;;;;;;33.38;22.00;;;;;;;2.81;100.00;108688.03;5059088;28;20036;-69
2024/02/17 02:56:26;;;;;;;30.63;20.58;;;;;;;3.57;100.00;108846.00;5055807;28;20091;-70
2024/02/17 02:58:51;;;;;;;31.13;20.73;;;;;;;3.35;100.00;108853.66;5060162;28;20119;-69
2024/02/17 03:01:17;;;;;;;31.30;21.05;;;;;;;2.48;100.00;108741.84;5059251;28;20560;-68
2024/02/17 03:03:42;;;;;;;34.80;21.90;;;;;;;3.22;100.00;108941.63;5057310;28;20036;-74
2024/02/17 03:06:07;;;;;;;34.17;21.10;;;;;;;2.98;100.00;108945.56;5060229;28;20033;-68
2024/02/17 03:08:33;;;;;;;34.53;21.50;;;;;;;2.86;100.00;109004.13;5059850;28;20040;-68
2024/02/17 03:10:58;;;;;;;32.75;21.10;;;;;;;3.50;100.00;109201.00;5052621;28;20082;-68
2024/02/17 03:13:24;;;;;;;33.00;21.60;;;;;;;3.64;100.00;109264.47;5061354;28;20032;-68
2024/02/17 03:15:49;;;;;;;31.15;21.38;;;;;;;2.84;100.00;109168.13;5060879;28;20028;-70
2024/02/17 03:18:15;;;;;;;35.13;22.80;;;;;;;3.28;100.00;109305.16;5054588;28;20517;-68
2024/02/17 03:20:44;;;;;;;30.65;20.67;;;;;;;3.15;100.00;109339.19;5057010;28;20035;-67
2024/02/17 03:23:10;;;;;;;32.17;22.08;;;;;;;3.40;100.00;109427.94;5057236;28;20086;-68
2024/02/17 03:25:36;;;;;;;36.08;22.13;;;;;;;3.61;100.00;109525.13;5051968;28;20040;-68
2024/02/17 03:28:01;;;;;;;37.17;22.08;;;;;;;3.16;100.00;109433.28;5054926;28;20033;-70
2024/02/17 03:30:27;;;;;;;31.15;21.60;;;;;;;3.21;100.00;109471.06;5057752;28;20028;-70
2024/02/17 03:32:52;;;;;;;36.08;23.10;;;;;;;2.22;100.00;109327.84;5059712;28;20520;-69
2024/02/17 03:35:18;;;;;;;37.30;23.63;;;;;;;3.02;100.00;109516.72;5059788;28;20032;-69
2024/02/17 03:37:43;;;;;;;40.33;25.85;;;;;;;2.02;100.00;109431.84;5059177;28;20120;-69
2024/02/17 03:40:09;;;;;;;41.00;26.92;;;;;;;2.88;100.00;109638.53;5055638;28;20414;-68
2024/02/17 03:42:35;;;;;;;39.25;27.38;;;;;;;2.40;100.00;109538.53;5058623;28;20063;-69
2024/02/17 03:45:00;;;;;;;39.65;26.88;;;;;;;2.75;100.00;109649.84;5051547;28;20498;-67
2024/02/17 03:47:26;;;;;;;42.63;28.20;;;;;;;2.23;100.00;109622.91;5059395;28;20574;-67
2024/02/17 03:49:51;;;;;;;42.47;27.45;;;;;;;2.58;100.00;109731.06;5058834;28;20544;-68
2024/02/17 03:52:17;;;;;;;38.03;25.65;;;;;;;1.88;100.00;109664.94;5057363;28;20040;-69
2024/02/17 03:54:42;;;;;;;38.20;24.98;;;;;;;1.69;100.00;109718.75;5051943;28;20040;-68
2024/02/17 03:57:08;;;;;;;59.65;26.02;;;;;;;2.33;100.00;109895.31;5054701;28;20090;-68
2024/02/17 03:59:34;;;;;;;35.80;22.35;;;;;;;3.01;100.00;110093.00;5062883;28;20055;-68
2024/02/17 04:01:59;;;;;;;34.67;21.77;;;;;;;1.94;100.00;109970.00;5054178;28;20079;-70
2024/02/17 04:04:25;;;;;;;33.53;21.73;;;;;;;2.33;100.00;110073.88;5059621;28;20410;-71
2024/02/17 04:06:51;;;;;;;36.42;23.17;;;;;;;2.45;100.00;110179.09;5060278;28;20044;-68
2024/02/17 04:09:17;;;;;;;36.05;23.52;;;;;;;2.05;100.00;110168.81;5062559;28;20437;-68
2024/02/17 04:11:42;;;;;;;36.95;22.27;;;;;;;2.38;100.00;110312.00;5055656;28;20043;-68
2024/02/17 04:14:08;;;;;;;38.65;23.25;;;;;;;2.59;100.00;110456.63;5056730;28;20403;-69
2024/02/17 04:16:34;;;;;;;30.98;20.30;;;;;;;2.63;100.00;110607.50;5058542;28;20111;-69
2024/02/17 04:18:59;;;;;;;30.42;21.23;;;;;;;2.08;100.00;110609.31;5059226;28;20558;-75
2024/02/17 04:21:25;;;;;;;37.05;24.48;;;;;;;1.81;100.00;110646.16;5056459;28;20029;-68
2024/02/17 04:23:50;;;;;;;39.55;26.88;;;;;;;2.52;100.00;110857.22;5056704;28;20036;-69
2024/02/17 04:26:16;;;;;;;38.55;25.73;;;;;;;2.49;100.00;110937.19;5059224;28;20120;-67
2024/02/17 04:28:41;;;;;;;42.38;26.95;;;;;;;2.60;100.00;111048.28;5064721;28;20025;-68
2024/02/17 04:31:07;;;;;;;41.40;28.77;;;;;;;2.14;100.00;111024.44;5061512;28;20036;-73
2024/02/17 04:33:39;;;;;;;46.72;30.77;;;;;;;2.34;100.00;111153.22;5067595;28;20036;-68
2024/02/17 04:36:05;;;;;;;;;;;;;;;2.46;100.00;111360.91;5057360;28;20041;-68
2024/02/17 04:38:31;;;;;;;40.45;26.77;;;;;;;2.23;100.00;111562.84;5061706;28;19920;-68
2024/02/17 04:40:56;;;;;;;38.13;23.70;;;;;;;1.80;100.00;111579.31;5063154;28;20496;-70
2024/02/17 04:43:21;;;;;;;33.50;21.40;;;;;;;1.62;100.00;111650.47;5056558;28;20033;-68
2024/02/17 04:45:47;;;;;;;32.08;21.52;;;;;;;2.36;100.00;111880.66;5058178;28;20033;-68
2024/02/17 04:48:12;;;;;;;33.97;22.05;;;;;;;2.49;100.00;111960.50;5060044;28;20032;-68
2024/02/17 04:50:38;;;;;;;33.97;23.30;;;;;;;2.36;100.00;112009.00;5059451;28;20041;-69
2024/02/17 04:53:03;;;;;;;34.75;22.70;;;;;;;1.52;100.00;112199.63;5056966;28;20032;-67
2024/02/17 04:55:30;;;;;;;32.25;22.15;;;;;;;2.69;100.00;112481.59;5061413;28;20059;-69
2024/02/17 04:57:56;;;;;;;34.40;22.30;;;;;;;1.64;100.00;112354.56;5058499;28;20028;-68
2024/02/17 05:00:22;;;;;;;30.63;20.63;;;;;;;1.78;100.00;112436.34;5055587;28;20090;-71
2024/02/17 05:02:48;;;;;;;31.45;20.38;;;;;;;2.50;100.00;112602.72;5058043;28;20029;-68
2024/02/17 05:05:16;;;;;;;35.22;21.20;;;;;;;2.02;100.00;112573.84;5059568;28;20029;-71
2024/02/17 05:07:43;;;;;;;32.25;20.13;;;;;;;2.52;100.00;112693.66;5057958;28;20021;-68
2024/02/17 05:10:08;;;;;;;32.22;19.63;;;;;;;2.87;100.00;112789.25;5059865;28;20043;-71
2024/02/17 05:12:34;;;;;;;30.10;20.60;;;;;;;2.09;100.00;112692.72;5055343;28;20033;-68
2024/02/17 05:14:59;;;;;;;32.30;22.15;;;;;;;1.55;100.00;112635.06;5056018;28;20033;-68
2024/02/17 05:17:26;;;;;;;48.85;31.17;;;;;;;2.45;100.00;112768.53;5056109;28;20089;-68
2024/02/17 05:19:51;;;;;;;39.28;27.00;;;;;;;1.34;100.00;112597.81;5061879;28;20419;-68
2024/02/17 05:22:17;;;;;;;33.70;23.10;;;;;;;2.30;100.00;112830.66;5058951;28;20035;-71
2024/02/17 05:24:45;;;;;;;28.48;20.20;;;;;;;1.37;100.00;112698.97;5067362;28;20040;-68
2024/02/17 05:27:12;;;;;;;35.45;21.63;;;;;;;1.74;100.00;112831.06;5066818;28;20036;-68
2024/02/17 05:29:41;;;;;;;33.05;21.48;;;;;;;2.12;100.00;112983.69;5061318;28;20452;-68
2024/02/17 05:32:07;;;;;;;36.25;22.38;;;;;;;1.98;100.00;112998.91;5057718;28;20049;-68
2024/02/17 05:34:33;;;;;;;35.33;22.50;;;;;;;2.08;100.00;113080.81;5061047;28;20029;-69
2024/02/17 05:36:59;;;;;;;31.13;21.10;;;;;;;2.63;100.00;113236.72;5057052;28;20036;-68
2024/02/17 05:39:24;;;;;;;34.33;22.10;;;;;;;1.96;100.00;113141.94;5054269;28;20384;-68
2024/02/17 05:41:50;;;;;;;34.05;23.52;;;;;;;1.82;100.00;113130.44;5055134;28;20033;-68
2024/02/17 05:44:16;;;;;;;34.33;23.48;;;;;;;2.07;100.00;113244.97;5061290;28;20032;-67
2024/02/17 05:46:41;;;;;;;32.05;22.65;;;;;;;2.72;100.00;113406.56;5056519;28;20063;-73
2024/02/17 05:49:06;;;;;;;32.83;21.83;;;;;;;1.92;100.00;113296.91;5057263;28;20029;-68
2024/02/17 05:51:32;;;;;;;30.50;21.67;;;;;;;1.77;100.00;113309.53;5061990;28;20047;-68
2024/02/17 05:53:57;;;;;;;35.35;22.85;;;;;;;1.56;100.00;113323.28;5064704;28;20475;-67
2024/02/17 05:56:27;;;;;;;40.13;25.30;;;;;;;2.17;100.00;113700.38;5059253;28;20426;-71
2024/02/17 05:58:54;;;;;;;40.35;28.55;;;;;;;2.50;100.00;113840.56;5061849;28;20054;-68
2024/02/17 06:01:20;;;;;;;44.70;29.35;;;;;;;2.69;100.00;113942.47;5056085;28;20526;-67
2024/02/17 06:03:46;;;;;;;40.60;27.33;;;;;;;2.76;100.00;113978.53;5061411;28;20047;-68
2024/02/17 06:06:11;;;;;;;40.83;28.00;;;;;;;2.32;100.00;113930.44;5060250;28;20044;-69
2024/02/17 06:08:36;;;;;;;52.50;35.53;;;;;;;2.60;100.00;113995.72;5061259;28;20032;-69
2024/02/17 06:11:02;;;;;;;48.05;32.95;;;;;;;3.13;100.00;114096.38;5057966;28;20032;-71
2024/02/17 06:13:28;;;;;;;45.80;32.03;;;;;;;3.06;100.00;114077.91;5059088;28;20183;-68
2024/02/17 06:15:54;;;;;;;57.78;38.85;;;;;;;2.54;100.00;113974.16;5057863;28;20029;-69
2024/02/17 06:21:19;;;;;;;70.20;45.33;;;;;;;2.36;100.00;113962.31;5056197;28;20074;-68
2024/02/17 06:23:47;;;;;;;38.20;23.75;;;;;;;2.91;100.00;114029.94;5053598;28;20031;-68
2024/02/17 06:26:22;;;;;;;43.28;28.55;;;;;;;3.11;100.00;114014.38;5056744;28;20509;-69
2024/02/17 06:28:48;;;;;;;39.70;27.73;;;;;;;2.81;100.00;113916.59;5053430;28;20033;-69
2024/02/17 06:31:14;;;;;;;49.47;32.80;;;;;;;3.50;100.00;113995.78;5057596;28;20035;-68
2024/02/17 06:33:39;;;;;;;54.63;37.83;;;;;;;2.35;100.00;113752.41;5054182;28;20407;-68
2024/02/17 06:36:05;;;;;;;52.63;34.75;;;;;;;2.79;100.00;113567.59;5052864;28;20513;-69
2024/02/17 06:38:31;;;;;;;41.58;28.73;;;;;;;3.37;100.00;113651.53;5053501;28;20514;-68
2024/02/17 06:40:56;;;;;;;40.60;27.73;;;;;;;3.42;100.00;113682.84;5051803;28;20029;-69
2024/02/17 06:43:21;;;;;;;40.08;27.83;;;;;;;3.57;100.00;113728.16;5049478;28;20112;-70
2024/02/17 06:45:47;;;;;;;38.58;27.38;;;;;;;3.82;100.00;113775.94;5049076;28;20036;-71
2024/02/17 06:48:12;;;;;;;39.08;27.98;;;;;;;4.38;100.00;113855.19;5049437;28;20081;-68
2024/02/17 06:50:38;;;;;;;39.15;27.10;;;;;;;3.88;100.00;113764.69;5052195;28;20036;-68
2024/02/17 06:53:04;;;;;;;40.50;28.40;;;;;;;4.62;100.00;113883.38;5051321;28;20044;-68
2024/02/17 06:55:29;;;;;;;45.83;30.65;;;;;;;4.81;100.00;113883.34;5049963;28;20508;-68
2024/02/17 06:57:54;;;;;;;45.90;31.45;;;;;;;5.49;100.00;113941.50;5050885;28;20029;-66
2024/02/17 07:00:20;;;;;;;44.47;31.27;;;;;;;5.25;100.00;113826.72;5055647;28;20036;-68
2024/02/17 07:02:45;;;;;;;43.60;29.15;;;;;;;6.35;100.00;113915.88;5050612;28;20402;-67
2024/02/17 07:05:13;;;;;;;48.30;32.55;;;;;;;6.91;100.00;113842.69;5050031;28;20040;-68
2024/02/17 07:07:39;;;;;;;58.88;42.25;;;;;;;6.17;100.00;113340.91;5048089;28;20029;-71
2024/02/17 07:10:05;;;;;;;60.72;47.70;;;;;;;6.77;100.00;113121.16;5051617;28;20150;-68
2024/02/17 07:12:31;;;;;;;63.83;46.55;;;;;;;7.01;100.00;112846.13;5049638;28;20029;-67
2024/02/17 07:14:57;;;;;;;69.25;47.53;;;;;;;7.20;100.00;112519.22;5051836;28;20108;-67
2024/02/17 07:17:23;;;;;;;74.22;48.72;;;;;;;6.77;100.00;112131.47;5051240;28;20120;-67
2024/02/17 07:19:48;;;;;;;77.28;54.58;;;;;;;7.70;100.00;111867.03;5055076;28;20419;-66
2024/02/17 07:22:14;;;;;;;102.72;71.88;;;;;;;7.73;100.00;111435.06;5048977;28;20033;-66
2024/02/17 07:24:39;;;;;;;102.75;62.45;;;;;;;7.34;100.00;111048.75;5050016;28;20491;-66
2024/02/17 07:27:05;;;;;;;88.30;63.00;;;;;;;7.38;100.00;110702.66;5049176;28;20040;-65
2024/02/17 07:29:35;;;;;;;77.97;55.97;;;;;;;7.34;100.00;110238.75;5055085;28;20052;-67
2024/02/17 07:32:00;;;;;;;90.82;63.10;;;;;;;7.27;100.00;109967.25;5054096;28;20116;-67
2024/02/17 07:34:26;;;;;;;88.70;61.33;;;;;;;6.89;100.00;109582.41;5052675;28;20112;-67
2024/02/17 07:36:51;;;;;;;87.75;61.65;;;;;;;7.92;100.00;109494.63;5052756;28;20063;-72
2024/02/17 07:39:17;;;;;;;88.32;62.42;;;;;;;7.60;100.00;108736.97;5050148;28;20028;-68
2024/02/17 07:41:43;;;;;;;86.05;60.70;;;;;;;8.12;100.00;108569.25;5049116;28;20119;-68
2024/02/17 07:44:08;;;;;;;81.10;58.78;;;;;;;8.25;100.00;108313.66;5051439;28;20463;-69
2024/02/17 07:46:35;;;;;;;77.10;56.13;;;;;;;8.54;100.00;107816.06;5051084;28;20035;-69
2024/02/17 07:49:02;;;;;;;78.97;55.47;;;;;;;8.44;100.00;107257.31;5052324;28;20039;-71
2024/02/17 07:51:28;;;;;;;70.72;48.60;;;;;;;8.50;100.00;106729.03;5052024;28;20040;-68
2024/02/17 07:53:53;;;;;;;68.80;46.67;;;;;;;10.19;100.00;106864.41;5049370;28;20052;-71
2024/02/17 07:56:19;;;;;;;73.30;50.75;;;;;;;10.35;100.00;106707.06;5055140;28;20396;-69
2024/02/17 07:58:44;;;;;;;60.42;41.35;;;;;;;9.92;100.00;106332.84;5050458;28;20079;-71
2024/02/17 08:01:09;;;;;;;52.00;36.75;;;;;;;8.61;100.00;106347.59;5052294;28;20033;-71
2024/02/17 08:03:35;;;;;;;52.60;37.13;;;;;;;8.63;100.00;106544.97;5051844;28;22338;-69
2024/02/17 08:06:00;;;;;;;48.88;33.67;;;;;;;9.08;100.00;106488.66;5056035;28;20045;-69
2024/02/17 08:08:27;;;;;;;52.78;35.75;;;;;;;8.92;100.00;106340.81;5056148;28;20025;-68
2024/02/17 08:10:52;;;;;;;49.75;33.95;;;;;;;8.63;100.00;106229.31;5054203;28;20079;-69
2024/02/17 08:13:18;;;;;;;45.88;32.67;;;;;;;9.50;100.00;106185.50;5052915;28;20033;-71
2024/02/17 08:15:44;;;;;;;50.08;31.67;;;;;;;8.11;100.00;105896.94;5061528;28;20474;-76
2024/02/17 08:18:09;;;;;;;54.83;29.00;;;;;;;8.77;100.00;105651.56;5058687;28;20051;-69
2024/02/17 08:20:35;;;;;;;47.72;31.73;;;;;;;9.44;100.00;105543.69;5053935;28;20441;-69
2024/02/17 08:23:00;;;;;;;42.80;27.70;;;;;;;10.08;100.00;105640.34;5055873;28;20036;-69
2024/02/17 08:25:26;;;;;;;35.08;23.45;;;;;;;8.56;100.00;105410.72;5055979;28;20028;-70
2024/02/17 08:27:52;;;;;;;37.22;23.98;;;;;;;8.48;100.00;105274.84;5050365;28;20067;-72
2024/02/17 08:30:17;;;;;;;48.05;27.95;;;;;;;8.69;100.00;105351.53;5056771;28;20522;-68
2024/02/17 08:32:43;;;;;;;37.97;23.13;;;;;;;8.16;100.00;105312.38;5055539;28;20067;-68
2024/02/17 08:35:10;;;;;;;41.22;24.27;;;;;;;7.68;100.00;105200.06;5055035;28;20037;-70
2024/02/17 08:37:36;;;;;;;40.30;24.92;;;;;;;8.16;100.00;105293.75;5056237;28;20036;-69
2024/02/17 08:40:01;;;;;;;39.53;23.45;;;;;;;8.01;100.00;105227.69;5051516;28;20098;-68
2024/02/17 08:42:27;;;;;;;42.53;26.30;;;;;;;8.14;100.00;105255.59;5056388;28;20395;-71
2024/02/17 08:44:55;;;;;;;37.65;22.02;;;;;;;8.79;100.00;105315.84;5056291;28;20591;-68
2024/02/17 08:47:22;;;;;;;39.72;22.67;;;;;;;8.82;100.00;105288.09;5052722;28;20033;-69
2024/02/17 08:49:48;;;;;;;36.92;22.30;;;;;;;7.59;100.00;105146.22;5054992;28;20028;-69
2024/02/17 08:52:14;;;;;;;35.28;22.40;;;;;;;7.84;100.00;105273.81;5056165;28;20039;-69
2024/02/17 08:54:40;;;;;;;40.55;22.95;;;;;;;7.67;100.00;105242.25;5054373;28;20033;-70
2024/02/17 08:57:05;;;;;;;32.80;21.30;;;;;;;8.25;100.00;105409.41;5053409;28;20571;-70
2024/02/17 08:59:31;;;;;;;36.78;21.85;;;;;;;8.02;100.00;105406.03;5052476;28;20045;-68
2024/02/17 09:01:57;;;;;;;42.08;24.08;;;;;;;8.16;100.00;105441.69;5053236;28;20473;-70
2024/02/17 09:04:22;;;;;;;39.72;22.25;;;;;;;7.41;100.00;105403.28;5056876;28;20558;-68
2024/02/17 09:06:48;;;;;;;38.03;22.95;;;;;;;7.87;100.00;105508.09;5055559;28;20466;-72
2024/02/17 09:09:14;;;;;;;39.90;23.38;;;;;;;7.24;100.00;105432.47;5051942;28;20114;-68
2024/02/17 09:11:39;;;;;;;37.13;22.33;;;;;;;7.81;100.00;105592.94;5051542;28;20480;-70
2024/02/17 09:14:05;;;;;;;43.47;23.10;;;;;;;7.36;100.00;105503.38;5056135;28;20047;-70
2024/02/17 09:16:30;;;;;;;40.58;23.15;;;;;;;7.86;100.00;105606.84;5052108;28;20029;-68
2024/02/17 09:18:55;;;;;;;39.58;21.63;;;;;;;7.97;100.00;105673.53;5053882;28;20039;-70
2024/02/17 09:21:21;;;;;;;40.08;23.23;;;;;;;7.36;100.00;105589.50;5051425;28;20501;-70
2024/02/17 09:23:46;;;;;;;39.35;23.52;;;;;;;8.26;100.00;105696.91;5051028;28;20075;-70
2024/02/17 09:26:11;;;;;;;38.88;22.38;;;;;;;7.46;100.00;105615.63;5054751;28;20478;-70
2024/02/17 09:28:37;;;;;;;38.65;23.05;;;;;;;7.64;100.00;105619.56;5056943;28;20036;-74
2024/02/17 09:31:03;;;;;;;41.60;25.90;;;;;;;8.54;100.00;105723.50;5053302;28;20422;-72
2024/02/17 09:33:29;;;;;;;42.17;24.35;;;;;;;8.18;100.00;105614.28;5054622;28;20032;-73
2024/02/17 09:35:56;;;;;;;37.22;22.50;;;;;;;8.00;100.00;105574.88;5053670;28;20104;-73
2024/02/17 09:38:22;;;;;;;39.47;23.23;;;;;;;7.79;100.00;105564.94;5053525;28;20047;-73
2024/02/17 09:40:47;;;;;;;40.80;23.52;;;;;;;9.07;100.00;105656.28;5053323;28;20495;-73
2024/02/17 09:43:13;;;;;;;37.42;22.23;;;;;;;8.56;100.00;105590.91;5054603;28;20135;-72
2024/02/17 09:45:40;;;;;;;36.78;23.05;;;;;;;8.62;100.00;105614.19;5055671;28;20458;-76
2024/02/17 09:48:06;;;;;;;53.65;32.20;;;;;;;8.63;100.00;105566.84;5056423;28;21289;-73
2024/02/17 09:50:32;;;;;;;38.53;23.23;;;;;;;8.63;100.00;105524.59;5052194;28;20064;-74
2024/02/17 09:53:02;;;;;;;41.90;24.25;;;;;;;8.38;100.00;105466.94;5057454;28;20059;-74
2024/02/17 09:55:30;;;;;;;47.30;28.65;;;;;;;8.84;100.00;105482.00;5054664;28;20108;-75
2024/02/17 09:57:55;;;;;;;53.50;32.47;;;;;;;9.04;100.00;105435.09;5051134;28;20028;-74
2024/02/17 10:00:21;;;;;;;39.55;23.20;;;;;;;9.27;100.00;105331.69;5061365;28;20032;-73
2024/02/17 10:02:48;;;;;;;32.90;21.27;;;;;;;8.54;100.00;105256.63;5049828;28;20028;-74
2024/02/17 10:05:15;;;;;;;49.33;27.73;;;;;;;8.86;100.00;105147.00;5051094;28;20113;-77
2024/02/17 10:07:53;;;;;;;44.92;25.45;;;;;;;7.90;100.00;105036.00;5054650;28;20029;-75
2024/02/17 10:10:21;;;;;;;35.33;21.00;;;;;;;9.08;100.00;105272.88;5055447;28;20081;-74
2024/02/17 10:12:51;;;;;;;36.83;23.67;;;;;;;9.49;100.00;105248.41;5052897;28;20032;-75
2024/02/17 10:15:18;;;;;;;44.83;26.23;;;;;;;8.79;100.00;105046.78;5053428;28;20032;-77
2024/02/17 10:17:44;;;;;;;55.67;28.63;;;;;;;8.57;100.00;104937.13;5052739;28;20528;-76
2024/02/17 10:20:11;;;;;;;39.50;22.80;;;;;;;8.94;100.00;104852.22;5051956;28;20028;-74
2024/02/17 10:22:37;;;;;;;40.03;25.42;;;;;;;9.08;100.00;104746.34;5049401;28;20060;-73
2024/02/17 10:25:03;;;;;;;34.53;20.38;;;;;;;8.57;100.00;104579.41;5049981;28;20036;-73
2024/02/17 10:27:28;;;;;;;34.03;20.88;;;;;;;8.68;100.00;104444.72;5054365;28;20029;-73
2024/02/17 10:30:16;;;;;;;33.42;20.77;;;;;;;9.42;100.00;104489.16;5052164;28;20384;-73
2024/02/17 10:32:42;;;;;;;37.30;20.77;;;;;;;8.70;100.00;104356.88;5053886;28;20036;-74
2024/02/17 10:35:10;;;;;;;31.55;19.10;;;;;;;8.44;100.00;104146.69;5053740;28;20025;-73
2024/02/17 10:37:40;;;;;;;32.00;20.75;;;;;;;8.50;100.00;104034.53;5052849;28;20056;-75
2024/02/17 10:40:08;;;;;;;36.33;21.48;;;;;;;8.60;100.00;103986.81;5052068;28;20423;-73
2024/02/17 10:42:35;;;;;;;33.03;20.00;;;;;;;8.39;100.00;103962.16;5051091;28;20039;-71
2024/02/17 10:45:01;;;;;;;32.00;20.13;;;;;;;8.89;100.00;103950.06;5049311;28;20082;-73
2024/02/17 10:47:32;;;;;;;40.70;23.70;;;;;;;9.02;100.00;103972.59;5046681;28;20024;-71
2024/02/17 10:50:03;;;;;;;50.25;29.17;;;;;;;8.89;100.00;103975.44;5052107;28;20064;-71
2024/02/17 10:52:35;;;;;;;36.00;21.77;;;;;;;8.83;100.00;103994.59;5053702;28;20473;-71
2024/02/17 10:55:14;;;;;;;35.13;21.77;;;;;;;8.60;100.00;103961.47;5054112;28;20071;-70
2024/02/17 10:57:51;;;;;;;51.30;28.15;;;;;;;9.36;100.00;103955.47;5049528;28;20064;-73
2024/02/17 11:00:19;;;;;;;36.50;23.10;;;;;;;8.83;100.00;103819.50;5050647;28;20033;-72
2024/02/17 11:02:47;;;;;;;37.70;21.70;;;;;;;9.91;100.00;103808.53;5051876;28;20116;-71
2024/02/17 11:05:13;;;;;;;39.22;23.48;;;;;;;8.77;100.00;103701.72;5053601;28;20095;-69
2024/02/17 11:07:42;;;;;;;34.53;22.35;;;;;;;9.02;100.00;103701.00;5054493;28;20155;-74